SBNT/NAT METAR and TAF weather

Enter ICAO airport designator
Station Type Date Time Source
SBNT METAR 2021/09/25 03:00 UTC NOAA

SBNT 250300Z 15005KT 9999 FEW020 25/23 Q1015


Station Type Date Time Source
SBNT Decoded METAR 2021/09/25 03:00 UTC NOAA

Natal Aeroporto, Brazil (SBNT) 05-55S 035-15W 49M
Sep 24, 2021 - 11:00 PM EDT / 2021.09.25 0300 UTC
Wind: from the SSE (150 degrees) at 6 MPH (5 KT):0
Visibility: greater than 7 mile(s):0
Sky conditions: mostly clear
Temperature: 77 F (25 C)
Dew Point: 73 F (23 C)
Relative Humidity: 88%
Pressure (altimeter): 29.97 in. Hg (1015 hPa)
ob: SBNT 250300Z 15005KT 9999 FEW020 25/23 Q1015
cycle: 3

Station Type Date Time Source
SBNT TAF 2021/09/25 00:00 UTC NOAA

TAF SBNT 242100Z 2500/2512 13010KT 9999 SCT023 TN24/2507Z TX29/2512Z
BECMG 2505/2507 17005KT
RMK PHD

Example: see airport list